Time;durP1;ratioP1;P1;durP2;ratioP2;P2;SDS_P1;SDS_P2;PMS_P1;PMS_P2;Temp;Humidity;BMP_temperature;BMP_pressure;BME280_temperature;BME280_humidity;BME280_pressure;Samples;Min_cycle;Max_cycle;Signal;HPM_P1;HPM_P2
2022/01/07 05:11:52;;;;;;;11.65;5.28;;;;;;;-4.18;81.41;101147.66;5558736;32;201848;-89
2022/01/07 05:14:55;;;;;;;13.35;5.35;;;;;;;-4.27;81.34;101140.53;5545683;32;34252;-89
2022/01/07 05:17:58;;;;;;;10.73;5.37;;;;;;;-4.36;81.72;101138.63;5553824;32;34200;-88
2022/01/07 05:21:00;;;;;;;8.73;5.20;;;;;;;-4.47;82.68;101143.53;5551106;32;34122;-87
2022/01/07 05:24:04;;;;;;;7.20;4.68;;;;;;;-4.42;82.78;101146.25;5550847;32;33883;-88
2022/01/07 05:27:06;;;;;;;11.38;5.30;;;;;;;-4.37;82.05;101149.81;5550952;32;34120;-88
2022/01/07 05:30:11;;;;;;;8.55;4.97;;;;;;;-4.39;82.36;101151.50;5550621;32;33105;-88
2022/01/07 05:33:14;;;;;;;9.43;4.95;;;;;;;-4.44;82.69;101147.91;5551556;32;34463;-88
2022/01/07 05:36:18;;;;;;;8.23;4.75;;;;;;;-4.43;82.73;101152.25;5551216;32;33979;-88
2022/01/07 05:39:21;;;;;;;8.63;4.65;;;;;;;-4.46;83.14;101149.59;5550861;32;33779;-88
2022/01/07 05:42:24;;;;;;;7.75;5.18;;;;;;;-4.52;83.79;101152.03;5551597;32;34181;-88
2022/01/07 05:45:27;;;;;;;8.25;5.00;;;;;;;-4.49;84.03;101160.75;5550073;32;34349;-88
2022/01/07 05:48:32;;;;;;;10.35;4.90;;;;;;;-4.57;84.39;101156.22;5550345;32;33827;-88
2022/01/07 05:51:35;;;;;;;11.43;5.25;;;;;;;-4.60;84.74;101164.78;5556466;32;34164;-88
2022/01/07 05:54:37;;;;;;;8.07;5.03;;;;;;;-4.64;84.72;101162.94;5556780;32;35237;-87
2022/01/07 05:57:41;;;;;;;11.57;5.72;;;;;;;-4.45;83.71;101166.88;5560859;32;35166;-88
2022/01/07 06:00:43;;;;;;;9.15;5.43;;;;;;;-4.56;84.17;101176.97;5560804;32;35845;-90
2022/01/07 06:03:46;;;;;;;10.98;5.32;;;;;;;-4.58;85.01;101170.88;5559600;32;35205;-90
2022/01/07 06:06:49;;;;;;;10.13;5.80;;;;;;;-4.55;85.75;101180.44;5558578;32;35174;-92
2022/01/07 06:09:52;;;;;;;15.70;6.10;;;;;;;-4.58;85.16;101178.63;5558071;32;35077;-89
2022/01/07 06:12:54;;;;;;;10.63;5.68;;;;;;;-4.57;85.33;101176.94;5552307;32;34089;-88
2022/01/07 06:15:57;;;;;;;9.77;5.90;;;;;;;-4.56;85.15;101173.50;5550745;32;33905;-88
2022/01/07 06:19:00;;;;;;;10.45;5.78;;;;;;;-4.64;85.61;101176.78;5551536;32;34652;-88
2022/01/07 06:22:03;;;;;;;12.07;6.30;;;;;;;-4.61;85.55;101189.81;5542885;32;34588;-88
2022/01/07 06:25:07;;;;;;;11.70;6.95;;;;;;;-4.67;85.55;101183.59;5537577;32;35248;-87
2022/01/07 06:28:10;;;;;;;11.05;6.03;;;;;;;-4.68;85.72;101182.69;5541273;32;34105;-87
2022/01/07 06:31:13;;;;;;;14.55;6.35;;;;;;;-4.74;86.23;101186.00;5540050;32;34454;-87
2022/01/07 06:34:20;;;;;;;14.68;6.85;;;;;;;-4.72;86.74;101196.41;5539952;32;33721;-88
2022/01/07 06:37:23;;;;;;;17.15;6.47;;;;;;;-4.66;86.83;101201.75;5533330;32;33976;-88
2022/01/07 06:40:26;;;;;;;11.02;6.10;;;;;;;-4.69;87.04;101200.81;5537062;32;34570;-88
2022/01/07 06:43:29;;;;;;;10.43;5.93;;;;;;;-4.77;87.21;101205.78;5520582;32;33972;-87
2022/01/07 06:46:32;;;;;;;11.23;6.47;;;;;;;-4.81;87.71;101212.59;5533759;32;34199;-87
2022/01/07 06:49:34;;;;;;;22.33;7.30;;;;;;;-4.78;88.05;101212.66;5538338;32;33619;-87
2022/01/07 06:52:38;;;;;;;20.52;7.37;;;;;;;-4.69;87.91;101217.19;5538367;32;34784;-88
2022/01/07 06:55:41;;;;;;;11.73;6.72;;;;;;;-4.77;88.41;101216.13;5530336;32;33758;-87
2022/01/07 06:58:44;;;;;;;18.95;7.53;;;;;;;-4.83;89.02;101215.97;5532125;32;35903;-87
2022/01/07 07:01:49;;;;;;;19.73;7.50;;;;;;;-4.83;89.73;101216.81;5534869;32;35394;-88
2022/01/07 07:04:52;;;;;;;12.37;6.62;;;;;;;-4.83;89.82;101219.41;5526793;32;34725;-87
2022/01/07 07:07:54;;;;;;;16.02;6.87;;;;;;;-4.81;89.98;101220.34;5544741;32;33806;-89
2022/01/07 07:10:57;;;;;;;13.73;6.85;;;;;;;-4.76;90.15;101226.53;5553427;32;34069;-89
2022/01/07 07:14:00;;;;;;;15.00;7.12;;;;;;;-4.49;89.75;101224.59;5552527;32;33818;-90
2022/01/07 07:17:03;;;;;;;12.07;7.10;;;;;;;-4.51;89.57;101224.59;5554933;32;34617;-91
2022/01/07 07:20:08;;;;;;;12.23;6.78;;;;;;;-4.50;89.96;101222.88;5596195;26;35203;-91
2022/01/07 07:30:39;;;;;;;16.45;6.82;;;;;;;-4.34;90.04;101230.19;4072215;29;20099;-90
2022/01/07 07:36:47;;;;;;;16.08;8.05;;;;;;;-4.13;88.97;101231.56;5525803;32;33954;-91
2022/01/07 07:43:28;;;;;;;20.15;8.65;;;;;;;-3.97;88.19;101224.19;4989623;29;20135;-87
2022/01/07 07:57:46;;;;;;;13.05;7.72;;;;;;;-3.71;87.96;101221.31;2294903;30;20355;-89
2022/01/07 08:00:50;;;;;;;21.62;9.30;;;;;;;-3.64;87.81;101241.34;5533366;32;34057;-90
2022/01/07 08:19:01;;;;;;;20.88;8.68;;;;;;;-3.47;85.41;101243.44;5508133;32;20081;-90
2022/01/07 08:22:05;;;;;;;18.30;9.00;;;;;;;-3.45;85.49;101245.25;5507633;32;34760;-87
2022/01/07 08:25:07;;;;;;;14.18;8.13;;;;;;;-3.41;85.02;101244.44;5503879;32;34079;-87
2022/01/07 08:28:12;;;;;;;15.30;8.07;;;;;;;-3.32;84.53;101248.09;5504404;32;35334;-91
2022/01/07 08:37:53;;;;;;;16.52;8.43;;;;;;;-3.11;83.42;101253.72;5483676;32;35109;-90
2022/01/07 08:40:57;;;;;;;16.95;8.90;;;;;;;-3.05;83.36;101254.72;5504466;32;33987;-89
2022/01/07 08:44:00;;;;;;;16.23;8.85;;;;;;;-3.00;83.02;101247.91;5496876;32;34004;-86
2022/01/07 08:47:03;;;;;;;18.33;8.88;;;;;;;-2.98;82.55;101249.69;5504178;32;34274;-88
2022/01/07 08:50:07;;;;;;;18.48;9.25;;;;;;;-2.93;82.35;101254.97;5498876;32;33424;-86
2022/01/07 08:53:11;;;;;;;18.87;8.93;;;;;;;-2.90;81.86;101260.22;5495141;32;33805;-88
2022/01/07 08:56:16;;;;;;;16.37;8.90;;;;;;;-2.80;80.68;101256.09;5495731;32;33864;-87
2022/01/07 08:59:19;;;;;;;18.33;8.95;;;;;;;-2.68;80.75;101254.59;5496759;32;34239;-87
2022/01/07 09:02:22;;;;;;;15.50;8.10;;;;;;;-2.69;79.50;101251.09;5495095;32;33725;-87
2022/01/07 09:05:25;;;;;;;11.60;6.40;;;;;;;-2.63;79.12;101255.53;5494355;32;33851;-86
2022/01/07 09:08:29;;;;;;;16.10;7.82;;;;;;;-2.54;73.36;101249.63;5498933;32;34161;-87
2022/01/07 09:11:34;;;;;;;12.00;7.25;;;;;;;-2.45;72.78;101253.25;5502112;32;33977;-86
2022/01/07 09:14:38;;;;;;;12.50;6.57;;;;;;;-2.28;73.94;101237.09;5500206;32;34272;-88
2022/01/07 09:17:41;;;;;;;13.10;6.57;;;;;;;-2.02;72.14;101236.66;5505295;32;34789;-88
2022/01/07 09:20:45;;;;;;;15.13;7.43;;;;;;;-2.01;70.05;101233.19;5506694;32;36014;-88
2022/01/07 09:27:25;;;;;;;17.27;7.12;;;;;;;-1.88;68.50;101231.69;5483968;32;20082;-88
2022/01/07 09:30:29;;;;;;;15.10;8.10;;;;;;;-1.77;69.16;101221.44;5474142;32;33866;-90
2022/01/07 09:33:32;;;;;;;13.40;6.75;;;;;;;-1.51;68.22;101219.22;5473918;32;34148;-88
2022/01/07 09:36:54;;;;;;;13.65;6.85;;;;;;;-0.24;64.96;101210.19;5479358;32;34616;-88
2022/01/07 09:40:00;;;;;;;14.73;7.20;;;;;;;5.46;47.18;101190.84;5483434;32;34175;-88
2022/01/07 09:43:06;;;;;;;13.15;6.85;;;;;;;8.37;38.13;101186.53;5466635;32;33871;-89
2022/01/07 09:46:15;;;;;;;10.80;6.55;;;;;;;10.43;34.59;101191.62;5456118;32;33505;-89
2022/01/07 09:49:18;;;;;;;13.80;6.90;;;;;;;13.07;28.77;101165.69;5474093;32;34245;-90
2022/01/07 09:52:21;;;;;;;10.93;6.75;;;;;;;15.08;24.75;101172.37;5492062;27;34211;-90
2022/01/07 10:10:26;;;;;;;8.60;6.03;;;;;;;15.71;21.76;101144.78;4044183;30;20104;-87
2022/01/07 10:13:29;;;;;;;8.73;5.57;;;;;;;12.78;25.55;101142.16;5474921;32;33763;-86
2022/01/07 10:16:51;;;;;;;9.35;5.90;;;;;;;9.77;31.73;101150.56;5476030;32;34022;-88
2022/01/07 10:19:56;;;;;;;10.60;6.30;;;;;;;7.30;33.63;101150.47;5480012;32;33606;-88
2022/01/07 10:23:06;;;;;;;8.55;5.68;;;;;;;6.87;35.43;101147.91;5497057;32;34002;-87
2022/01/07 10:26:16;;;;;;;9.07;6.03;;;;;;;6.31;36.19;101149.06;5493635;32;33549;-87
2022/01/07 10:29:28;;;;;;;11.52;5.60;;;;;;;5.17;39.14;101138.69;5496456;32;34502;-88
2022/01/07 10:32:32;;;;;;;8.10;5.18;;;;;;;5.05;40.13;101132.69;5494711;32;33831;-87
2022/01/07 10:35:34;;;;;;;9.27;5.85;;;;;;;4.25;41.51;101124.06;5495615;32;34850;-87
2022/01/07 10:38:48;;;;;;;7.18;5.00;;;;;;;4.17;41.69;101121.53;5495610;32;35023;-87
2022/01/07 10:42:00;;;;;;;8.38;4.70;;;;;;;4.11;41.01;101116.34;5495982;32;34238;-89
2022/01/07 10:48:53;;;;;;;7.28;5.12;;;;;;;3.01;44.43;101108.53;5546129;26;33822;-88
2022/01/07 10:51:56;;;;;;;11.25;5.07;;;;;;;3.24;44.63;101100.50;5535275;26;34168;-87
2022/01/07 10:55:10;;;;;;;8.00;4.65;;;;;;;3.47;43.46;101096.84;5507531;32;32688;-87
2022/01/07 10:58:13;;;;;;;10.77;5.30;;;;;;;3.62;43.17;101095.84;5504537;32;34943;-88
2022/01/07 11:05:03;;;;;;;8.38;4.85;;;;;;;3.82;42.25;101086.03;2851906;26;20587;-88
2022/01/07 11:08:06;;;;;;;7.75;4.95;;;;;;;3.59;43.42;101074.00;5496331;32;34429;-89
2022/01/07 11:11:11;;;;;;;10.38;4.85;;;;;;;4.36;42.49;101081.91;5495948;32;35305;-89
2022/01/07 11:14:26;;;;;;;7.65;4.85;;;;;;;3.97;42.00;101077.13;5495094;32;33763;-89
2022/01/07 11:17:29;;;;;;;9.43;5.00;;;;;;;3.69;42.46;101086.16;5493267;32;33973;-89
2022/01/07 11:20:36;;;;;;;6.95;4.80;;;;;;;3.76;43.08;101079.06;5494793;32;35037;-89
2022/01/07 11:23:46;;;;;;;8.60;4.78;;;;;;;3.77;41.98;101078.19;5493074;32;34480;-89
2022/01/07 11:26:59;;;;;;;7.25;4.47;;;;;;;4.45;40.81;101076.56;5496623;32;34855;-89
2022/01/07 11:30:07;;;;;;;6.00;3.62;;;;;;;6.31;36.17;101058.56;5494437;32;34164;-90
2022/01/07 11:33:19;;;;;;;6.93;4.47;;;;;;;5.17;37.63;101055.34;5494203;32;35249;-90
2022/01/07 11:36:37;;;;;;;6.32;4.12;;;;;;;4.17;39.90;101054.13;5494497;32;33958;-89
2022/01/07 11:39:40;;;;;;;8.00;4.80;;;;;;;3.76;40.93;101053.72;5494364;32;34455;-90
2022/01/07 11:42:45;;;;;;;8.18;4.50;;;;;;;4.12;40.29;101053.31;5494966;32;34078;-89
2022/01/07 11:45:48;;;;;;;6.95;4.70;;;;;;;6.98;35.32;101036.00;5493407;32;34238;-89
2022/01/07 11:48:52;;;;;;;8.13;4.32;;;;;;;7.55;33.01;101039.84;5493827;32;33620;-89
2022/01/07 11:51:55;;;;;;;6.87;4.28;;;;;;;5.58;35.87;101029.22;5493867;32;33849;-89
2022/01/07 11:55:23;;;;;;;6.82;4.25;;;;;;;4.38;38.21;101028.47;5494307;32;33972;-89
2022/01/07 11:58:46;;;;;;;9.13;4.65;;;;;;;3.65;39.88;101029.34;5495624;32;33444;-89
2022/01/07 12:01:57;;;;;;;8.15;4.68;;;;;;;3.09;42.14;101027.22;5483151;32;34046;-90
2022/01/07 12:05:28;;;;;;;7.25;4.50;;;;;;;3.00;43.22;101027.28;5478309;32;34315;-89
2022/01/07 12:09:05;;;;;;;6.10;4.20;;;;;;;3.03;43.00;101025.53;5497394;32;35224;-93
2022/01/07 12:12:14;;;;;;;7.05;4.60;;;;;;;2.88;42.17;101020.41;5503565;32;33977;-90
2022/01/07 12:15:17;;;;;;;7.62;4.50;;;;;;;2.93;41.94;101016.00;5501997;32;34131;-89
2022/01/07 12:18:20;;;;;;;7.32;4.12;;;;;;;2.76;42.61;101016.97;5493530;32;34076;-88
2022/01/07 12:21:22;;;;;;;9.70;4.85;;;;;;;2.76;42.04;101024.84;5492382;32;33365;-89
2022/01/07 12:24:43;;;;;;;9.13;5.05;;;;;;;3.24;41.57;101000.84;5585078;31;366889;-89
2022/01/07 12:27:47;;;;;;;6.82;4.70;;;;;;;3.24;41.57;101000.84;5590345;31;33718;-89
2022/01/07 12:30:50;;;;;;;7.50;4.82;;;;;;;2.45;43.47;101000.59;5595296;31;35347;-88
2022/01/07 12:33:56;;;;;;;7.57;4.62;;;;;;;2.45;44.75;100992.75;5576801;32;33898;-86
2022/01/07 12:37:02;;;;;;;6.60;4.30;;;;;;;2.26;43.91;101000.72;5576118;32;35196;-88
2022/01/07 12:40:08;;;;;;;5.93;4.68;;;;;;;1.99;44.28;100984.25;5579013;32;34168;-87
2022/01/07 12:43:11;;;;;;;6.07;4.32;;;;;;;1.88;43.73;100997.38;5578186;32;33756;-87
2022/01/07 12:46:17;;;;;;;9.60;4.82;;;;;;;1.65;44.87;100982.63;5571068;32;34186;-87
2022/01/07 12:49:32;;;;;;;6.68;4.90;;;;;;;1.65;44.84;100979.16;5580191;32;34011;-87
2022/01/07 12:52:38;;;;;;;7.20;4.45;;;;;;;1.59;45.25;100980.03;5573689;32;34799;-87
2022/01/07 12:55:41;;;;;;;8.45;4.50;;;;;;;1.39;44.92;100980.94;5578731;32;34179;-87
2022/01/07 12:58:46;;;;;;;7.87;4.80;;;;;;;1.49;45.14;100973.94;5579122;32;34015;-86
2022/01/07 13:01:55;;;;;;;7.20;4.90;;;;;;;1.53;44.95;100972.19;5594508;32;35167;-88
2022/01/07 13:05:20;;;;;;;6.87;4.70;;;;;;;1.67;44.32;100972.16;5580551;32;34638;-88
2022/01/07 13:08:23;;;;;;;6.22;4.70;;;;;;;1.63;44.70;100966.06;5574196;32;34098;-88
2022/01/07 13:11:26;;;;;;;8.00;5.07;;;;;;;1.64;45.61;100962.56;5570489;32;34217;-88
2022/01/07 13:14:29;;;;;;;8.27;4.90;;;;;;;1.75;45.43;100958.19;5587288;31;34145;-88
2022/01/07 13:17:33;;;;;;;10.05;4.95;;;;;;;1.60;45.21;100956.47;5592071;31;33935;-87
2022/01/07 13:20:36;;;;;;;8.10;5.22;;;;;;;1.80;45.50;100960.75;5591138;32;33805;-88
2022/01/07 13:23:56;;;;;;;7.72;4.97;;;;;;;1.65;45.90;100947.75;5588544;32;34735;-87
2022/01/07 13:27:05;;;;;;;10.50;5.55;;;;;;;1.48;46.14;100949.56;5591025;31;34219;-86
2022/01/07 13:30:08;;;;;;;7.72;4.87;;;;;;;1.51;46.19;100953.88;5571278;32;33989;-86
2022/01/07 13:33:14;;;;;;;9.23;5.72;;;;;;;1.36;45.30;100946.97;5593632;32;34103;-86
2022/01/07 13:36:44;;;;;;;6.45;4.70;;;;;;;1.39;45.72;100943.44;5577474;32;34513;-87
2022/01/07 13:39:51;;;;;;;6.78;4.97;;;;;;;1.44;46.55;100942.59;5569710;32;34323;-88
2022/01/07 13:43:09;;;;;;;9.68;5.12;;;;;;;1.41;46.99;100939.13;5559021;32;35005;-88
2022/01/07 13:46:20;;;;;;;7.87;4.93;;;;;;;1.34;45.91;100939.13;5571986;32;33773;-87
2022/01/07 13:49:25;;;;;;;8.10;4.78;;;;;;;1.31;46.32;100944.34;5573542;32;34372;-88
2022/01/07 13:52:29;;;;;;;10.75;5.20;;;;;;;1.53;46.00;100932.97;5577636;32;34271;-90
2022/01/07 13:55:35;;;;;;;9.05;5.53;;;;;;;1.32;45.81;100921.72;5569781;32;33663;-87
2022/01/07 13:58:40;;;;;;;8.80;4.62;;;;;;;1.28;45.67;100927.81;5554890;32;33913;-88
2022/01/07 14:02:01;;;;;;;9.80;5.10;;;;;;;1.13;46.44;100923.47;5554568;32;34672;-88
2022/01/07 14:05:13;;;;;;;11.55;4.93;;;;;;;1.09;46.67;100938.28;5558696;32;35139;-90
2022/01/07 14:12:11;;;;;;;8.18;4.87;;;;;;;1.01;46.54;100920.00;991880;26;21404;-89
2022/01/07 14:15:18;;;;;;;8.95;4.70;;;;;;;0.99;46.17;100916.53;5648829;26;32010;-89
2022/01/07 14:18:23;;;;;;;8.93;5.05;;;;;;;0.91;46.14;100923.53;5572342;32;34288;-89
2022/01/07 14:21:26;;;;;;;10.82;5.00;;;;;;;0.89;46.30;100917.41;5620582;26;33630;-88
2022/01/07 14:24:31;;;;;;;7.03;5.05;;;;;;;0.85;46.33;100916.53;5637132;26;35322;-89
2022/01/07 14:27:35;;;;;;;7.32;4.95;;;;;;;0.82;46.42;100908.72;5575286;32;34971;-88
2022/01/07 14:30:38;;;;;;;9.63;4.70;;;;;;;0.73;47.00;100914.81;5571601;32;34971;-88
2022/01/07 14:33:42;;;;;;;6.70;4.70;;;;;;;0.71;46.88;100920.91;5570869;32;34153;-89
2022/01/07 14:36:45;;;;;;;6.60;4.60;;;;;;;0.62;46.95;100906.09;5572568;32;33873;-88
2022/01/07 14:39:49;;;;;;;7.95;5.10;;;;;;;0.50;47.60;100918.28;5572087;32;34953;-88
2022/01/07 14:42:51;;;;;;;9.18;5.25;;;;;;;0.48;47.07;100912.19;5582770;32;34393;-88
2022/01/07 14:45:54;;;;;;;6.70;5.05;;;;;;;0.48;47.17;100914.81;5577806;32;33998;-88
2022/01/07 14:48:57;;;;;;;7.53;4.70;;;;;;;0.43;47.37;100915.66;5574247;32;33723;-88
2022/01/07 14:52:00;;;;;;;10.15;5.22;;;;;;;0.23;48.34;100914.78;5572316;32;35270;-88
2022/01/07 14:55:05;;;;;;;7.72;5.12;;;;;;;0.25;48.03;100909.56;5574753;32;34304;-88
2022/01/07 14:58:10;;;;;;;8.88;5.03;;;;;;;0.06;49.01;100912.16;5580906;32;33613;-88
2022/01/07 15:01:18;;;;;;;6.85;4.70;;;;;;;-0.04;49.41;100906.00;5577627;32;34549;-88
2022/01/07 15:04:21;;;;;;;9.55;5.43;;;;;;;-0.17;49.74;100914.66;5583452;32;34257;-88
2022/01/07 15:07:25;;;;;;;6.50;4.45;;;;;;;-0.30;50.36;100917.22;5581709;32;33776;-88
2022/01/07 15:10:28;;;;;;;8.25;4.78;;;;;;;-0.46;52.10;100912.84;5577569;32;33735;-88
2022/01/07 15:13:30;;;;;;;10.80;4.97;;;;;;;-0.56;51.42;100915.37;5584755;32;33738;-88
2022/01/07 15:16:36;;;;;;;8.80;5.00;;;;;;;-0.44;50.71;100908.50;5572504;32;33994;-88
2022/01/07 15:19:39;;;;;;;7.93;5.18;;;;;;;-0.36;50.97;100912.00;5565038;32;34743;-88
2022/01/07 15:23:00;;;;;;;8.88;5.07;;;;;;;-0.61;51.95;100924.06;701497;29;20342;-89
2022/01/07 15:26:03;;;;;;;9.38;5.03;;;;;;;-0.67;52.13;100930.09;5584051;32;33609;-89
2022/01/07 15:29:08;;;;;;;13.60;5.60;;;;;;;-0.77;52.37;100926.56;5584375;32;34851;-89
2022/01/07 15:32:10;;;;;;;12.02;5.60;;;;;;;-0.87;52.66;100928.25;5583625;32;35239;-88
2022/01/07 15:35:18;;;;;;;9.63;5.32;;;;;;;-1.04;53.32;100924.63;5579522;32;35274;-87
2022/01/07 15:38:21;;;;;;;9.20;5.53;;;;;;;-1.20;54.45;100928.87;5584228;32;34918;-88
2022/01/07 15:41:25;;;;;;;11.10;5.62;;;;;;;-1.25;54.88;100928.84;5584466;32;33740;-88
2022/01/07 15:44:27;;;;;;;12.57;6.12;;;;;;;-1.39;55.18;100927.00;5584260;32;33961;-87
2022/01/07 15:47:30;;;;;;;10.50;6.10;;;;;;;-1.42;55.43;100919.16;5583331;32;34170;-88
2022/01/07 15:50:33;;;;;;;10.80;6.47;;;;;;;-1.45;55.81;100921.75;5578451;32;33955;-88
2022/01/07 15:53:36;;;;;;;9.20;5.40;;;;;;;-1.58;56.06;100922.47;5570751;32;34404;-89
2022/01/07 15:56:40;;;;;;;11.15;6.10;;;;;;;-1.60;56.05;100918.97;5578688;32;34135;-89
2022/01/07 15:59:43;;;;;;;13.55;6.40;;;;;;;-1.49;55.49;100925.16;5581622;32;34184;-89
2022/01/07 16:02:46;;;;;;;9.98;5.93;;;;;;;-1.59;56.06;100921.59;5584482;32;34343;-89
2022/01/07 16:05:49;;;;;;;10.45;6.07;;;;;;;-1.68;56.29;100922.38;5584255;32;34713;-89
2022/01/07 16:08:51;;;;;;;13.10;6.70;;;;;;;-1.74;56.55;100922.34;5572017;32;35230;-89
2022/01/07 16:11:56;;;;;;;18.77;7.62;;;;;;;-1.58;56.63;100918.16;5561980;32;33438;-89
